sensor_id;sensor_type;location;lat;lon;timestamp;pressure;altitude;pressure_sealevel;temperature;humidity
37206;BME280;23099;42.636;23.198;2022-08-03T00:00:53;92167.41;;;15.95;78.25
37206;BME280;23099;42.636;23.198;2022-08-03T00:03:20;92163.19;;;15.94;77.87
37206;BME280;23099;42.636;23.198;2022-08-03T00:05:47;92163.94;;;15.98;78.24
37206;BME280;23099;42.636;23.198;2022-08-03T00:08:13;92159.72;;;15.97;77.90
37206;BME280;23099;42.636;23.198;2022-08-03T00:10:40;92156.25;;;15.97;77.61
37206;BME280;23099;42.636;23.198;2022-08-03T00:13:07;92156.63;;;15.95;78.22
37206;BME280;23099;42.636;23.198;2022-08-03T00:15:37;92155.09;;;15.90;77.51
37206;BME280;23099;42.636;23.198;2022-08-03T00:18:06;92156.63;;;15.95;77.92
37206;BME280;23099;42.636;23.198;2022-08-03T00:20:32;92150.47;;;15.95;78.23
37206;BME280;23099;42.636;23.198;2022-08-03T00:23:00;92158.56;;;15.98;78.09
37206;BME280;23099;42.636;23.198;2022-08-03T00:25:27;92152.00;;;15.96;78.73
37206;BME280;23099;42.636;23.198;2022-08-03T00:27:53;92147.78;;;15.91;77.81
37206;BME280;23099;42.636;23.198;2022-08-03T00:30:20;92153.94;;;15.95;78.32
37206;BME280;23099;42.636;23.198;2022-08-03T00:32:47;92144.31;;;15.98;78.35
37206;BME280;23099;42.636;23.198;2022-08-03T00:35:15;92156.59;;;16.02;78.52
37206;BME280;23099;42.636;23.198;2022-08-03T00:37:42;92148.91;;;16.04;78.14
37206;BME280;23099;42.636;23.198;2022-08-03T00:40:10;92144.28;;;16.05;78.32
37206;BME280;23099;42.636;23.198;2022-08-03T00:42:46;92139.66;;;16.09;79.19
37206;BME280;23099;42.636;23.198;2022-08-03T00:45:13;92148.91;;;16.04;78.57
37206;BME280;23099;42.636;23.198;2022-08-03T00:47:40;92139.31;;;15.96;77.92
37206;BME280;23099;42.636;23.198;2022-08-03T00:50:07;92147.41;;;15.96;78.11
37206;BME280;23099;42.636;23.198;2022-08-03T00:52:35;92145.84;;;15.99;78.23
37206;BME280;23099;42.636;23.198;2022-08-03T00:55:02;92135.50;;;15.86;77.73
37206;BME280;23099;42.636;23.198;2022-08-03T00:57:31;92143.97;;;15.85;77.89
37206;BME280;23099;42.636;23.198;2022-08-03T00:59:58;92145.50;;;15.82;78.91
37206;BME280;23099;42.636;23.198;2022-08-03T01:02:25;92136.25;;;15.83;79.46
37206;BME280;23099;42.636;23.198;2022-08-03T01:04:52;92134.34;;;15.77;79.29
37206;BME280;23099;42.636;23.198;2022-08-03T01:07:26;92139.72;;;15.84;78.85
37206;BME280;23099;42.636;23.198;2022-08-03T01:09:59;92127.78;;;15.85;78.90
37206;BME280;23099;42.636;23.198;2022-08-03T01:12:33;92121.59;;;15.91;79.64
37206;BME280;23099;42.636;23.198;2022-08-03T01:15:07;92123.53;;;15.95;79.21
37206;BME280;23099;42.636;23.198;2022-08-03T01:17:40;92121.19;;;16.00;79.55
37206;BME280;23099;42.636;23.198;2022-08-03T01:20:12;92121.56;;;16.02;79.23
37206;BME280;23099;42.636;23.198;2022-08-03T01:23:04;92128.88;;;16.02;78.26
37206;BME280;23099;42.636;23.198;2022-08-03T01:25:42;92112.75;;;15.91;77.68
37206;BME280;23099;42.636;23.198;2022-08-03T01:28:24;92114.66;;;15.94;77.39
37206;BME280;23099;42.636;23.198;2022-08-03T01:31:01;92123.53;;;15.95;78.36
37206;BME280;23099;42.636;23.198;2022-08-03T01:33:33;92126.22;;;15.87;79.21
37206;BME280;23099;42.636;23.198;2022-08-03T01:36:04;92125.88;;;15.78;79.67
37206;BME280;23099;42.636;23.198;2022-08-03T01:38:35;92122.78;;;15.76;80.34
37206;BME280;23099;42.636;23.198;2022-08-03T01:41:07;92131.25;;;15.78;80.36
37206;BME280;23099;42.636;23.198;2022-08-03T01:43:36;92133.97;;;15.75;79.88
37206;BME280;23099;42.636;23.198;2022-08-03T01:46:06;92130.09;;;15.76;80.76
37206;BME280;23099;42.636;23.198;2022-08-03T01:48:35;92140.13;;;15.82;80.60
37206;BME280;23099;42.636;23.198;2022-08-03T01:51:03;92123.56;;;15.84;80.42
37206;BME280;23099;42.636;23.198;2022-08-03T01:53:32;92112.78;;;15.84;79.89
37206;BME280;23099;42.636;23.198;2022-08-03T01:56:01;92125.88;;;15.82;79.54
37206;BME280;23099;42.636;23.198;2022-08-03T01:58:31;92124.34;;;15.77;79.34
37206;BME280;23099;42.636;23.198;2022-08-03T02:01:00;92133.97;;;15.75;79.34
37206;BME280;23099;42.636;23.198;2022-08-03T02:03:31;92123.59;;;15.66;79.27
37206;BME280;23099;42.636;23.198;2022-08-03T02:06:00;92112.84;;;15.55;79.73
37206;BME280;23099;42.636;23.198;2022-08-03T02:08:27;92131.31;;;15.57;79.52
37206;BME280;23099;42.636;23.198;2022-08-03T02:10:56;92119.75;;;15.49;80.08
37206;BME280;23099;42.636;23.198;2022-08-03T02:13:25;92128.97;;;15.52;80.73
37206;BME280;23099;42.636;23.198;2022-08-03T02:15:52;92132.06;;;15.50;80.90
37206;BME280;23099;42.636;23.198;2022-08-03T02:18:20;92119.75;;;15.46;80.88
37206;BME280;23099;42.636;23.198;2022-08-03T02:20:49;92131.66;;;15.48;80.24
37206;BME280;23099;42.636;23.198;2022-08-03T02:23:17;92128.59;;;15.53;80.46
37206;BME280;23099;42.636;23.198;2022-08-03T02:25:47;92129.75;;;15.52;80.90
37206;BME280;23099;42.636;23.198;2022-08-03T02:28:16;92126.66;;;15.54;80.62
37206;BME280;23099;42.636;23.198;2022-08-03T02:30:46;92129.78;;;15.56;80.60
37206;BME280;23099;42.636;23.198;2022-08-03T02:33:18;92127.81;;;15.53;80.68
37206;BME280;23099;42.636;23.198;2022-08-03T02:35:46;92120.13;;;15.51;80.82
37206;BME280;23099;42.636;23.198;2022-08-03T02:38:15;92126.28;;;15.52;81.05
37206;BME280;23099;42.636;23.198;2022-08-03T02:40:45;92115.16;;;15.43;81.07
37206;BME280;23099;42.636;23.198;2022-08-03T02:43:16;92118.22;;;15.34;81.44
37206;BME280;23099;42.636;23.198;2022-08-03T02:45:46;92118.22;;;15.34;81.75
37206;BME280;23099;42.636;23.198;2022-08-03T02:48:16;92125.91;;;15.32;81.54
37206;BME280;23099;42.636;23.198;2022-08-03T02:50:44;92120.53;;;15.32;82.05
37206;BME280;23099;42.636;23.198;2022-08-03T02:53:13;92122.84;;;15.34;82.03
37206;BME280;23099;42.636;23.198;2022-08-03T02:55:43;92120.53;;;15.32;81.96
37206;BME280;23099;42.636;23.198;2022-08-03T02:58:12;92113.63;;;15.28;81.83
37206;BME280;23099;42.636;23.198;2022-08-03T03:00:40;92111.69;;;15.17;82.75
37206;BME280;23099;42.636;23.198;2022-08-03T03:03:10;92115.53;;;15.06;83.12
37206;BME280;23099;42.636;23.198;2022-08-03T03:05:37;92114.03;;;14.98;83.96
37206;BME280;23099;42.636;23.198;2022-08-03T03:08:06;92118.25;;;14.99;84.30
37206;BME280;23099;42.636;23.198;2022-08-03T03:10:34;92114.00;;;14.91;84.47
37206;BME280;23099;42.636;23.198;2022-08-03T03:13:04;92122.47;;;14.93;84.62
37206;BME280;23099;42.636;23.198;2022-08-03T03:15:32;92122.09;;;14.94;84.48
37206;BME280;23099;42.636;23.198;2022-08-03T03:18:00;92129.38;;;15.04;84.86
37206;BME280;23099;42.636;23.198;2022-08-03T03:20:28;92128.25;;;15.12;84.29
37206;BME280;23099;42.636;23.198;2022-08-03T03:22:58;92129.41;;;15.11;84.33
37206;BME280;23099;42.636;23.198;2022-08-03T03:25:26;92130.94;;;15.09;84.00
37206;BME280;23099;42.636;23.198;2022-08-03T03:27:53;92134.41;;;15.13;83.23
37206;BME280;23099;42.636;23.198;2022-08-03T03:30:22;92140.53;;;15.06;82.84
37206;BME280;23099;42.636;23.198;2022-08-03T03:32:49;92136.31;;;14.95;82.79
37206;BME280;23099;42.636;23.198;2022-08-03T03:35:16;92132.81;;;14.73;83.92
37206;BME280;23099;42.636;23.198;2022-08-03T03:37:43;92141.69;;;14.80;84.49
37206;BME280;23099;42.636;23.198;2022-08-03T03:40:10;92133.59;;;14.77;84.36
37206;BME280;23099;42.636;23.198;2022-08-03T03:42:37;92134.34;;;14.74;85.12
37206;BME280;23099;42.636;23.198;2022-08-03T03:45:06;92144.38;;;14.80;85.11
37206;BME280;23099;42.636;23.198;2022-08-03T03:47:35;92142.06;;;14.86;85.34
37206;BME280;23099;42.636;23.198;2022-08-03T03:50:02;92150.53;;;14.88;84.90
37206;BME280;23099;42.636;23.198;2022-08-03T03:52:30;92148.25;;;14.97;84.62
37206;BME280;23099;42.636;23.198;2022-08-03T03:54:57;92154.00;;;15.03;84.62
37206;BME280;23099;42.636;23.198;2022-08-03T03:57:24;92153.63;;;15.04;84.03
37206;BME280;23099;42.636;23.198;2022-08-03T03:59:51;92153.22;;;15.06;84.10
37206;BME280;23099;42.636;23.198;2022-08-03T04:02:18;92141.31;;;15.00;84.46
37206;BME280;23099;42.636;23.198;2022-08-03T04:04:46;92145.91;;;14.89;85.45
37206;BME280;23099;42.636;23.198;2022-08-03T04:07:36;92145.94;;;14.99;84.77
37206;BME280;23099;42.636;23.198;2022-08-03T04:10:27;92152.06;;;15.07;85.33
37206;BME280;23099;42.636;23.198;2022-08-03T04:13:12;92150.91;;;15.01;85.72
37206;BME280;23099;42.636;23.198;2022-08-03T04:15:42;92140.16;;;15.04;85.48
37206;BME280;23099;42.636;23.198;2022-08-03T04:18:12;92144.38;;;15.05;84.99
37206;BME280;23099;42.636;23.198;2022-08-03T04:20:44;92141.34;;;15.14;85.30
37206;BME280;23099;42.636;23.198;2022-08-03T04:23:15;92147.09;;;15.23;85.54
37206;BME280;23099;42.636;23.198;2022-08-03T04:25:42;92143.25;;;15.28;85.18
37206;BME280;23099;42.636;23.198;2022-08-03T04:28:11;92144.00;;;15.32;85.63
37206;BME280;23099;42.636;23.198;2022-08-03T04:30:39;92146.69;;;15.42;85.53
37206;BME280;23099;42.636;23.198;2022-08-03T04:33:12;92143.97;;;15.46;85.84
37206;BME280;23099;42.636;23.198;2022-08-03T04:35:40;92150.94;;;15.58;85.44
37206;BME280;23099;42.636;23.198;2022-08-03T04:38:12;92132.81;;;15.47;85.22
37206;BME280;23099;42.636;23.198;2022-08-03T04:40:41;92149.00;;;15.62;85.42
37206;BME280;23099;42.636;23.198;2022-08-03T04:43:10;92143.59;;;15.62;85.24
37206;BME280;23099;42.636;23.198;2022-08-03T04:45:38;92154.38;;;15.79;84.86
37206;BME280;23099;42.636;23.198;2022-08-03T04:48:06;92144.72;;;15.82;84.67
37206;BME280;23099;42.636;23.198;2022-08-03T04:50:33;92158.56;;;15.91;84.59
37206;BME280;23099;42.636;23.198;2022-08-03T04:53:00;92154.72;;;15.99;84.81
37206;BME280;23099;42.636;23.198;2022-08-03T04:55:30;92150.06;;;16.03;84.94
37206;BME280;23099;42.636;23.198;2022-08-03T04:57:58;92153.50;;;16.11;84.94
37206;BME280;23099;42.636;23.198;2022-08-03T05:00:25;92159.25;;;16.16;84.82
37206;BME280;23099;42.636;23.198;2022-08-03T05:02:53;92154.63;;;16.20;85.01
37206;BME280;23099;42.636;23.198;2022-08-03T05:05:19;92158.47;;;16.30;84.92
37206;BME280;23099;42.636;23.198;2022-08-03T05:07:46;92151.09;;;16.31;85.17
37206;BME280;23099;42.636;23.198;2022-08-03T05:10:13;92159.19;;;16.38;85.39
37206;BME280;23099;42.636;23.198;2022-08-03T05:12:42;92167.66;;;16.43;85.52
37206;BME280;23099;42.636;23.198;2022-08-03T05:15:09;92159.50;;;16.50;85.44
37206;BME280;23099;42.636;23.198;2022-08-03T05:17:36;92171.84;;;16.55;85.94
37206;BME280;23099;42.636;23.198;2022-08-03T05:20:04;92164.88;;;16.57;85.86
37206;BME280;23099;42.636;23.198;2022-08-03T05:22:32;92163.69;;;16.62;85.74
37206;BME280;23099;42.636;23.198;2022-08-03T05:24:59;92179.47;;;16.74;85.52
37206;BME280;23099;42.636;23.198;2022-08-03T05:27:26;92183.69;;;16.79;86.06
37206;BME280;23099;42.636;23.198;2022-08-03T05:29:55;92177.88;;;16.80;85.30
37206;BME280;23099;42.636;23.198;2022-08-03T05:32:21;92178.97;;;16.90;84.47
37206;BME280;23099;42.636;23.198;2022-08-03T05:34:48;92176.63;;;16.99;84.18
37206;BME280;23099;42.636;23.198;2022-08-03T05:37:15;92177.72;;;17.05;83.62
37206;BME280;23099;42.636;23.198;2022-08-03T05:39:41;92186.19;;;17.14;82.88
37206;BME280;23099;42.636;23.198;2022-08-03T05:42:08;92176.06;;;17.25;82.00
37206;BME280;23099;42.636;23.198;2022-08-03T05:44:36;92174.47;;;17.31;82.77
37206;BME280;23099;42.636;23.198;2022-08-03T05:47:05;92179.81;;;17.42;82.39
37206;BME280;23099;42.636;23.198;2022-08-03T05:49:31;92181.66;;;17.49;81.26
37206;BME280;23099;42.636;23.198;2022-08-03T05:51:58;92185.50;;;17.51;81.18
37206;BME280;23099;42.636;23.198;2022-08-03T05:54:25;92183.88;;;17.61;80.59
37206;BME280;23099;42.636;23.198;2022-08-03T05:56:51;92194.25;;;17.73;80.12
37206;BME280;23099;42.636;23.198;2022-08-03T05:59:18;92182.19;;;17.81;79.45
37206;BME280;23099;42.636;23.198;2022-08-03T06:01:46;92192.97;;;17.88;79.35
37206;BME280;23099;42.636;23.198;2022-08-03T06:04:14;92192.44;;;18.00;79.27
37206;BME280;23099;42.636;23.198;2022-08-03T06:06:41;92201.22;;;18.12;78.89
37206;BME280;23099;42.636;23.198;2022-08-03T06:09:08;92196.50;;;18.19;76.91
37206;BME280;23099;42.636;23.198;2022-08-03T06:11:36;92204.50;;;18.30;76.73
37206;BME280;23099;42.636;23.198;2022-08-03T06:14:03;92195.09;;;18.42;76.42
37206;BME280;23099;42.636;23.198;2022-08-03T06:16:30;92197.72;;;18.49;75.12
37206;BME280;23099;42.636;23.198;2022-08-03T06:18:56;92196.09;;;18.55;72.68
37206;BME280;23099;42.636;23.198;2022-08-03T06:21:24;92207.63;;;18.62;74.79
37206;BME280;23099;42.636;23.198;2022-08-03T06:23:51;92202.56;;;18.68;74.05
37206;BME280;23099;42.636;23.198;2022-08-03T06:26:18;92205.19;;;18.75;72.43
37206;BME280;23099;42.636;23.198;2022-08-03T06:28:45;92207.38;;;18.84;72.01
37206;BME280;23099;42.636;23.198;2022-08-03T06:31:13;92210.06;;;18.87;72.00
37206;BME280;23099;42.636;23.198;2022-08-03T06:33:40;92204.94;;;18.93;72.07
37206;BME280;23099;42.636;23.198;2022-08-03T06:36:07;92206.84;;;18.96;69.88
37206;BME280;23099;42.636;23.198;2022-08-03T06:38:35;92212.88;;;19.07;70.96
37206;BME280;23099;42.636;23.198;2022-08-03T06:41:01;92207.72;;;19.16;70.79
37206;BME280;23099;42.636;23.198;2022-08-03T06:43:28;92205.38;;;19.18;70.61
37206;BME280;23099;42.636;23.198;2022-08-03T06:45:55;92214.94;;;19.26;70.19
37206;BME280;23099;42.636;23.198;2022-08-03T06:48:21;92194.38;;;19.29;69.80
37206;BME280;23099;42.636;23.198;2022-08-03T06:50:48;92206.91;;;19.46;69.13
37206;BME280;23099;42.636;23.198;2022-08-03T06:53:15;92212.25;;;19.53;69.04
37206;BME280;23099;42.636;23.198;2022-08-03T06:55:43;92207.91;;;19.59;68.85
37206;BME280;23099;42.636;23.198;2022-08-03T06:58:10;92192.44;;;19.56;68.91
37206;BME280;23099;42.636;23.198;2022-08-03T07:00:37;92199.63;;;19.66;68.76
37206;BME280;23099;42.636;23.198;2022-08-03T07:03:09;92204.56;;;19.75;69.88
37206;BME280;23099;42.636;23.198;2022-08-03T07:05:36;92206.38;;;19.82;70.22
37206;BME280;23099;42.636;23.198;2022-08-03T07:08:03;92207.03;;;19.89;69.36
37206;BME280;23099;42.636;23.198;2022-08-03T07:10:30;92199.16;;;19.95;68.21
37206;BME280;23099;42.636;23.198;2022-08-03T07:13:01;92202.19;;;20.00;67.50
37206;BME280;23099;42.636;23.198;2022-08-03T07:15:28;92206.25;;;20.12;68.82
37206;BME280;23099;42.636;23.198;2022-08-03T07:17:55;92213.84;;;20.21;67.38
37206;BME280;23099;42.636;23.198;2022-08-03T07:20:22;92209.00;;;20.32;66.46
37206;BME280;23099;42.636;23.198;2022-08-03T07:22:49;92208.41;;;20.44;65.37
37206;BME280;23099;42.636;23.198;2022-08-03T07:25:16;92205.50;;;20.55;66.25
37206;BME280;23099;42.636;23.198;2022-08-03T07:27:43;92210.28;;;20.67;64.46
37206;BME280;23099;42.636;23.198;2022-08-03T07:30:13;92217.81;;;20.79;64.44
37206;BME280;23099;42.636;23.198;2022-08-03T07:32:40;92205.63;;;20.87;64.78
37206;BME280;23099;42.636;23.198;2022-08-03T07:35:08;92212.72;;;21.01;64.59
37206;BME280;23099;42.636;23.198;2022-08-03T07:37:36;92205.81;;;21.16;63.35
37206;BME280;23099;42.636;23.198;2022-08-03T07:40:04;92212.91;;;21.30;62.56
37206;BME280;23099;42.636;23.198;2022-08-03T07:42:31;92219.22;;;21.43;62.14
37206;BME280;23099;42.636;23.198;2022-08-03T07:44:58;92222.09;;;21.52;63.53
37206;BME280;23099;42.636;23.198;2022-08-03T07:47:27;92223.06;;;21.62;62.17
37206;BME280;23099;42.636;23.198;2022-08-03T07:49:55;92226.38;;;21.69;61.38
37206;BME280;23099;42.636;23.198;2022-08-03T07:52:21;92227.31;;;21.79;61.70
37206;BME280;23099;42.636;23.198;2022-08-03T07:55:06;92219.69;;;21.90;61.04
37206;BME280;23099;42.636;23.198;2022-08-03T07:57:34;92230.69;;;22.03;58.55
37206;BME280;23099;42.636;23.198;2022-08-03T08:00:02;92229.28;;;22.11;55.34
37206;BME280;23099;42.636;23.198;2022-08-03T08:02:30;92232.97;;;22.20;57.27
37206;BME280;23099;42.636;23.198;2022-08-03T08:04:57;92232.00;;;22.27;57.96
37206;BME280;23099;42.636;23.198;2022-08-03T08:07:24;92231.50;;;22.32;56.68
37206;BME280;23099;42.636;23.198;2022-08-03T08:09:51;92235.22;;;22.38;57.22
37206;BME280;23099;42.636;23.198;2022-08-03T08:12:17;92238.19;;;22.44;58.13
37206;BME280;23099;42.636;23.198;2022-08-03T08:14:44;92241.94;;;22.50;55.15
37206;BME280;23099;42.636;23.198;2022-08-03T08:17:11;92235.53;;;22.56;56.24
37206;BME280;23099;42.636;23.198;2022-08-03T08:19:39;92244.72;;;22.63;55.12
37206;BME280;23099;42.636;23.198;2022-08-03T08:22:06;92236.34;;;22.70;55.29
37206;BME280;23099;42.636;23.198;2022-08-03T08:24:32;92238.22;;;22.73;56.84
37206;BME280;23099;42.636;23.198;2022-08-03T08:26:59;92243.19;;;22.78;56.91
37206;BME280;23099;42.636;23.198;2022-08-03T08:29:26;92239.81;;;22.86;55.97
37206;BME280;23099;42.636;23.198;2022-08-03T08:31:53;92238.88;;;22.93;55.38
37206;BME280;23099;42.636;23.198;2022-08-03T08:34:20;92232.88;;;22.98;54.85
37206;BME280;23099;42.636;23.198;2022-08-03T08:36:48;92242.91;;;23.01;54.96
37206;BME280;23099;42.636;23.198;2022-08-03T08:39:14;92241.38;;;23.00;52.54
37206;BME280;23099;42.636;23.198;2022-08-03T08:41:41;92244.78;;;23.04;52.56
37206;BME280;23099;42.636;23.198;2022-08-03T08:44:08;92234.09;;;23.10;53.44
37206;BME280;23099;42.636;23.198;2022-08-03T08:46:37;92235.44;;;23.18;53.35
37206;BME280;23099;42.636;23.198;2022-08-03T08:49:06;92239.47;;;23.26;54.14
37206;BME280;23099;42.636;23.198;2022-08-03T08:51:35;92243.63;;;23.31;54.38
37206;BME280;23099;42.636;23.198;2022-08-03T08:54:07;92235.78;;;23.33;51.46
37206;BME280;23099;42.636;23.198;2022-08-03T08:56:35;92237.44;;;23.43;52.12
37206;BME280;23099;42.636;23.198;2022-08-03T08:59:04;92238.44;;;23.49;52.92
37206;BME280;23099;42.636;23.198;2022-08-03T09:01:31;92237.56;;;23.52;51.08
37206;BME280;23099;42.636;23.198;2022-08-03T09:03:58;92230.38;;;23.58;51.94
37206;BME280;23099;42.636;23.198;2022-08-03T09:06:25;92230.16;;;23.65;51.96
37206;BME280;23099;42.636;23.198;2022-08-03T09:08:51;92233.97;;;23.68;51.07
37206;BME280;23099;42.636;23.198;2022-08-03T09:11:22;92232.22;;;23.74;50.75
37206;BME280;23099;42.636;23.198;2022-08-03T09:15:26;92226.22;;;23.79;50.58
37206;BME280;23099;42.636;23.198;2022-08-03T09:17:55;92233.41;;;23.85;50.57
37206;BME280;23099;42.636;23.198;2022-08-03T09:20:24;92224.25;;;23.92;51.67
37206;BME280;23099;42.636;23.198;2022-08-03T09:22:54;92228.59;;;24.02;49.74
37206;BME280;23099;42.636;23.198;2022-08-03T09:25:31;92229.91;;;24.10;49.31
37206;BME280;23099;42.636;23.198;2022-08-03T09:28:07;92225.41;;;24.16;47.83
37206;BME280;23099;42.636;23.198;2022-08-03T09:30:38;92226.28;;;24.26;49.24
37206;BME280;23099;42.636;23.198;2022-08-03T09:33:06;92226.25;;;24.39;48.10
37206;BME280;23099;42.636;23.198;2022-08-03T09:35:39;92223.09;;;24.40;47.38
37206;BME280;23099;42.636;23.198;2022-08-03T09:38:11;92222.84;;;24.47;47.46
37206;BME280;23099;42.636;23.198;2022-08-03T09:40:38;92229.03;;;24.60;47.51
37206;BME280;23099;42.636;23.198;2022-08-03T09:43:05;92227.28;;;24.66;49.84
37206;BME280;23099;42.636;23.198;2022-08-03T09:45:33;92238.97;;;24.67;48.25
37206;BME280;23099;42.636;23.198;2022-08-03T09:48:24;92224.50;;;24.79;46.67
37206;BME280;23099;42.636;23.198;2022-08-03T09:50:52;92226.09;;;24.89;46.77
37206;BME280;23099;42.636;23.198;2022-08-03T09:53:20;92223.59;;;24.95;49.84
37206;BME280;23099;42.636;23.198;2022-08-03T09:55:51;92220.91;;;25.04;46.24
37206;BME280;23099;42.636;23.198;2022-08-03T09:58:19;92226.41;;;25.13;46.75
37206;BME280;23099;42.636;23.198;2022-08-03T10:00:54;92216.75;;;25.21;44.89
37206;BME280;23099;42.636;23.198;2022-08-03T10:03:24;92213.75;;;25.28;46.23
37206;BME280;23099;42.636;23.198;2022-08-03T10:05:51;92212.78;;;25.44;45.75
37206;BME280;23099;42.636;23.198;2022-08-03T10:08:19;92213.66;;;25.63;46.79
37206;BME280;23099;42.636;23.198;2022-08-03T10:10:48;92211.75;;;25.82;44.48
37206;BME280;23099;42.636;23.198;2022-08-03T10:13:16;92204.91;;;25.86;43.76
37206;BME280;23099;42.636;23.198;2022-08-03T10:15:44;92193.38;;;26.00;43.44
37206;BME280;23099;42.636;23.198;2022-08-03T10:18:10;92197.97;;;26.03;42.61
37206;BME280;23099;42.636;23.198;2022-08-03T10:20:43;92200.09;;;25.99;43.78
37206;BME280;23099;42.636;23.198;2022-08-03T10:23:12;92195.56;;;26.15;42.94
37206;BME280;23099;42.636;23.198;2022-08-03T10:25:40;92189.53;;;26.29;42.45
37206;BME280;23099;42.636;23.198;2022-08-03T10:28:11;92187.13;;;26.49;41.78
37206;BME280;23099;42.636;23.198;2022-08-03T10:30:40;92193.66;;;26.61;42.72
37206;BME280;23099;42.636;23.198;2022-08-03T10:33:16;92186.19;;;26.70;42.61
37206;BME280;23099;42.636;23.198;2022-08-03T10:35:45;92185.94;;;26.96;41.50
37206;BME280;23099;42.636;23.198;2022-08-03T10:38:17;92182.53;;;27.19;39.63
37206;BME280;23099;42.636;23.198;2022-08-03T10:40:45;92188.44;;;27.36;39.64
37206;BME280;23099;42.636;23.198;2022-08-03T10:43:18;92183.66;;;27.64;37.72
37206;BME280;23099;42.636;23.198;2022-08-03T10:45:45;92183.38;;;27.95;40.61
37206;BME280;23099;42.636;23.198;2022-08-03T10:48:12;92178.72;;;28.10;39.75
37206;BME280;23099;42.636;23.198;2022-08-03T10:50:40;92171.53;;;28.36;38.94
37206;BME280;23099;42.636;23.198;2022-08-03T10:53:10;92177.59;;;28.64;37.74
37206;BME280;23099;42.636;23.198;2022-08-03T10:55:38;92176.59;;;28.76;38.25
37206;BME280;23099;42.636;23.198;2022-08-03T10:58:50;92171.50;;;28.60;36.90
37206;BME280;23099;42.636;23.198;2022-08-03T11:01:18;92173.34;;;28.63;35.21
37206;BME280;23099;42.636;23.198;2022-08-03T11:06:30;92172.41;;;28.19;38.06
37206;BME280;23099;42.636;23.198;2022-08-03T11:09:17;92168.38;;;28.29;38.00
37206;BME280;23099;42.636;23.198;2022-08-03T11:11:46;92171.88;;;28.53;37.78
37206;BME280;23099;42.636;23.198;2022-08-03T11:14:16;92172.69;;;28.68;36.70
37206;BME280;23099;42.636;23.198;2022-08-03T11:16:45;92173.59;;;28.89;36.93
37206;BME280;23099;42.636;23.198;2022-08-03T11:19:14;92161.50;;;29.10;36.83
37206;BME280;23099;42.636;23.198;2022-08-03T11:21:55;92162.78;;;29.39;36.21
37206;BME280;23099;42.636;23.198;2022-08-03T11:27:38;92156.28;;;29.71;32.77
37206;BME280;23099;42.636;23.198;2022-08-03T11:30:07;92161.28;;;29.73;33.43
37206;BME280;23099;42.636;23.198;2022-08-03T11:32:56;92163.00;;;30.00;33.29
37206;BME280;23099;42.636;23.198;2022-08-03T11:35:25;92153.06;;;30.08;35.09
37206;BME280;23099;42.636;23.198;2022-08-03T11:38:07;92162.19;;;30.34;33.81
37206;BME280;23099;42.636;23.198;2022-08-03T11:40:37;92150.28;;;30.43;31.29
37206;BME280;23099;42.636;23.198;2022-08-03T11:43:06;92146.34;;;30.29;30.74
37206;BME280;23099;42.636;23.198;2022-08-03T11:45:34;92153.38;;;30.50;31.96
37206;BME280;23099;42.636;23.198;2022-08-03T11:48:12;92157.50;;;30.55;32.41
37206;BME280;23099;42.636;23.198;2022-08-03T11:50:40;92144.97;;;30.59;32.66
37206;BME280;23099;42.636;23.198;2022-08-03T11:53:14;92150.22;;;30.78;34.04
37206;BME280;23099;42.636;23.198;2022-08-03T11:55:41;92151.91;;;30.96;32.21
37206;BME280;23099;42.636;23.198;2022-08-03T11:58:16;92146.88;;;31.14;31.42
37206;BME280;23099;42.636;23.198;2022-08-03T12:00:43;92158.69;;;31.15;32.23
37206;BME280;23099;42.636;23.198;2022-08-03T12:03:11;92155.47;;;30.76;31.76
37206;BME280;23099;42.636;23.198;2022-08-03T12:05:41;92160.63;;;30.28;33.12
37206;BME280;23099;42.636;23.198;2022-08-03T12:08:09;92149.16;;;30.35;31.79
37206;BME280;23099;42.636;23.198;2022-08-03T12:10:37;92153.94;;;30.34;32.32
37206;BME280;23099;42.636;23.198;2022-08-03T12:13:05;92140.34;;;30.10;32.52
37206;BME280;23099;42.636;23.198;2022-08-03T12:15:35;92144.63;;;30.11;33.13
37206;BME280;23099;42.636;23.198;2022-08-03T12:18:13;92140.13;;;30.34;33.51
37206;BME280;23099;42.636;23.198;2022-08-03T12:20:40;92149.22;;;30.20;33.11
37206;BME280;23099;42.636;23.198;2022-08-03T12:23:08;92136.25;;;30.06;33.20
37206;BME280;23099;42.636;23.198;2022-08-03T12:25:37;92138.72;;;30.04;33.01
37206;BME280;23099;42.636;23.198;2022-08-03T12:28:15;92144.19;;;30.18;34.92
37206;BME280;23099;42.636;23.198;2022-08-03T12:30:46;92142.81;;;30.08;33.24
37206;BME280;23099;42.636;23.198;2022-08-03T12:33:18;92143.75;;;30.05;33.50
37206;BME280;23099;42.636;23.198;2022-08-03T12:35:47;92143.97;;;29.87;33.23
37206;BME280;23099;42.636;23.198;2022-08-03T12:38:19;92142.34;;;29.95;33.81
37206;BME280;23099;42.636;23.198;2022-08-03T12:40:55;92141.56;;;30.09;34.01
37206;BME280;23099;42.636;23.198;2022-08-03T12:43:22;92138.00;;;30.23;33.78
37206;BME280;23099;42.636;23.198;2022-08-03T12:45:50;92136.22;;;29.85;33.83
37206;BME280;23099;42.636;23.198;2022-08-03T12:48:17;92142.66;;;29.97;35.00
37206;BME280;23099;42.636;23.198;2022-08-03T12:50:43;92133.91;;;29.99;34.68
37206;BME280;23099;42.636;23.198;2022-08-03T12:53:10;92128.19;;;29.87;34.44
37206;BME280;23099;42.636;23.198;2022-08-03T12:55:37;92131.72;;;29.88;34.26
37206;BME280;23099;42.636;23.198;2022-08-03T12:58:06;92131.16;;;29.84;34.91
37206;BME280;23099;42.636;23.198;2022-08-03T13:00:35;92132.94;;;29.87;34.78
37206;BME280;23099;42.636;23.198;2022-08-03T13:03:05;92133.03;;;29.58;34.24
37206;BME280;23099;42.636;23.198;2022-08-03T13:05:41;92121.75;;;29.41;35.69
37206;BME280;23099;42.636;23.198;2022-08-03T13:08:17;92132.53;;;29.15;35.30